sensor_id;sensor_type;location;lat;lon;timestamp;temperature;humidity
35325;DHT22;35135;47.510;19.036;2022-09-09T00:04:05;24.80;59.50
35325;DHT22;35135;47.510;19.036;2022-09-09T00:12:47;24.90;59.10
35325;DHT22;35135;47.510;19.036;2022-09-09T00:21:37;25.10;58.60
35325;DHT22;35135;47.510;19.036;2022-09-09T00:24:15;25.20;58.70
35325;DHT22;35135;47.510;19.036;2022-09-09T00:26:57;25.20;58.50
35325;DHT22;35135;47.510;19.036;2022-09-09T00:29:51;25.30;58.50
35325;DHT22;35135;47.510;19.036;2022-09-09T00:32:30;25.30;58.20
35325;DHT22;35135;47.510;19.036;2022-09-09T00:35:39;25.30;58.10
35325;DHT22;35135;47.510;19.036;2022-09-09T00:38:16;25.40;58.10
35325;DHT22;35135;47.510;19.036;2022-09-09T00:44:00;25.30;57.80
35325;DHT22;35135;47.510;19.036;2022-09-09T00:54:53;25.20;57.90
35325;DHT22;35135;47.510;19.036;2022-09-09T00:57:32;25.10;57.70
35325;DHT22;35135;47.510;19.036;2022-09-09T01:00:19;25.00;57.90
35325;DHT22;35135;47.510;19.036;2022-09-09T01:05:57;25.00;58.50
35325;DHT22;35135;47.510;19.036;2022-09-09T01:14:50;25.20;57.50
35325;DHT22;35135;47.510;19.036;2022-09-09T01:17:26;25.10;57.70
35325;DHT22;35135;47.510;19.036;2022-09-09T01:28:27;24.80;58.30
35325;DHT22;35135;47.510;19.036;2022-09-09T01:30:56;24.70;58.80
35325;DHT22;35135;47.510;19.036;2022-09-09T01:33:23;24.70;58.90
35325;DHT22;35135;47.510;19.036;2022-09-09T01:35:51;24.70;58.20
35325;DHT22;35135;47.510;19.036;2022-09-09T01:38:21;24.70;58.50
35325;DHT22;35135;47.510;19.036;2022-09-09T01:40:49;24.70;59.00
35325;DHT22;35135;47.510;19.036;2022-09-09T01:43:22;24.70;58.60
35325;DHT22;35135;47.510;19.036;2022-09-09T01:45:55;24.60;59.10
35325;DHT22;35135;47.510;19.036;2022-09-09T01:48:24;24.70;58.90
35325;DHT22;35135;47.510;19.036;2022-09-09T01:50:51;24.60;59.10
35325;DHT22;35135;47.510;19.036;2022-09-09T01:53:21;24.60;59.30
35325;DHT22;35135;47.510;19.036;2022-09-09T02:04:41;24.50;58.80
35325;DHT22;35135;47.510;19.036;2022-09-09T02:07:28;24.30;59.20
35325;DHT22;35135;47.510;19.036;2022-09-09T02:13:11;24.30;59.70
35325;DHT22;35135;47.510;19.036;2022-09-09T02:18:18;24.30;59.20
35325;DHT22;35135;47.510;19.036;2022-09-09T02:20:54;24.30;59.50
35325;DHT22;35135;47.510;19.036;2022-09-09T02:23:25;24.40;59.40
35325;DHT22;35135;47.510;19.036;2022-09-09T02:25:58;24.50;59.20
35325;DHT22;35135;47.510;19.036;2022-09-09T02:28:30;24.70;58.50
35325;DHT22;35135;47.510;19.036;2022-09-09T02:31:00;24.70;58.50
35325;DHT22;35135;47.510;19.036;2022-09-09T02:33:36;24.60;58.30
35325;DHT22;35135;47.510;19.036;2022-09-09T02:36:09;24.50;58.50
35325;DHT22;35135;47.510;19.036;2022-09-09T02:38:52;24.40;58.70
35325;DHT22;35135;47.510;19.036;2022-09-09T02:41:49;24.40;59.10
35325;DHT22;35135;47.510;19.036;2022-09-09T02:44:18;24.40;58.90
35325;DHT22;35135;47.510;19.036;2022-09-09T02:50:15;24.40;58.80
35325;DHT22;35135;47.510;19.036;2022-09-09T02:55:41;24.40;58.80
35325;DHT22;35135;47.510;19.036;2022-09-09T02:58:12;24.30;59.20
35325;DHT22;35135;47.510;19.036;2022-09-09T03:00:39;24.30;59.00
35325;DHT22;35135;47.510;19.036;2022-09-09T03:03:09;24.20;58.90
35325;DHT22;35135;47.510;19.036;2022-09-09T03:05:38;24.10;59.60
35325;DHT22;35135;47.510;19.036;2022-09-09T03:08:06;24.10;59.60
35325;DHT22;35135;47.510;19.036;2022-09-09T03:10:35;24.10;59.30
35325;DHT22;35135;47.510;19.036;2022-09-09T03:13:03;24.10;59.50
35325;DHT22;35135;47.510;19.036;2022-09-09T03:15:33;24.10;59.40
35325;DHT22;35135;47.510;19.036;2022-09-09T03:18:01;24.10;59.50
35325;DHT22;35135;47.510;19.036;2022-09-09T03:20:29;24.20;58.90
35325;DHT22;35135;47.510;19.036;2022-09-09T03:22:58;24.10;58.90
35325;DHT22;35135;47.510;19.036;2022-09-09T03:25:26;24.00;59.40
35325;DHT22;35135;47.510;19.036;2022-09-09T03:27:54;24.10;59.30
35325;DHT22;35135;47.510;19.036;2022-09-09T03:30:22;24.10;59.20
35325;DHT22;35135;47.510;19.036;2022-09-09T03:32:52;24.10;59.20
35325;DHT22;35135;47.510;19.036;2022-09-09T03:35:19;24.20;59.30
35325;DHT22;35135;47.510;19.036;2022-09-09T03:37:45;24.30;59.00
35325;DHT22;35135;47.510;19.036;2022-09-09T03:40:13;24.40;58.10
35325;DHT22;35135;47.510;19.036;2022-09-09T03:42:40;24.30;58.40
35325;DHT22;35135;47.510;19.036;2022-09-09T03:45:09;24.30;58.60
35325;DHT22;35135;47.510;19.036;2022-09-09T03:47:37;24.20;59.00
35325;DHT22;35135;47.510;19.036;2022-09-09T03:50:06;24.20;58.70
35325;DHT22;35135;47.510;19.036;2022-09-09T03:52:36;24.20;58.70
35325;DHT22;35135;47.510;19.036;2022-09-09T03:55:04;24.20;58.90
35325;DHT22;35135;47.510;19.036;2022-09-09T03:57:34;24.30;58.80
35325;DHT22;35135;47.510;19.036;2022-09-09T04:00:06;24.30;58.30
35325;DHT22;35135;47.510;19.036;2022-09-09T04:02:33;24.30;58.40
35325;DHT22;35135;47.510;19.036;2022-09-09T04:04:59;24.30;58.30
35325;DHT22;35135;47.510;19.036;2022-09-09T04:07:25;24.20;58.70
35325;DHT22;35135;47.510;19.036;2022-09-09T04:09:52;24.30;58.80
35325;DHT22;35135;47.510;19.036;2022-09-09T04:12:20;24.40;58.60
35325;DHT22;35135;47.510;19.036;2022-09-09T04:14:48;24.50;58.10
35325;DHT22;35135;47.510;19.036;2022-09-09T04:17:15;24.50;57.50
35325;DHT22;35135;47.510;19.036;2022-09-09T04:19:44;24.50;57.60
35325;DHT22;35135;47.510;19.036;2022-09-09T04:22:17;24.40;57.50
35325;DHT22;35135;47.510;19.036;2022-09-09T04:24:46;24.30;57.80
35325;DHT22;35135;47.510;19.036;2022-09-09T04:27:13;24.30;58.00
35325;DHT22;35135;47.510;19.036;2022-09-09T04:29:41;24.20;58.20
35325;DHT22;35135;47.510;19.036;2022-09-09T04:32:09;24.20;58.20
35325;DHT22;35135;47.510;19.036;2022-09-09T04:34:40;24.30;57.40
35325;DHT22;35135;47.510;19.036;2022-09-09T04:37:08;24.20;58.20
35325;DHT22;35135;47.510;19.036;2022-09-09T04:39:35;24.30;58.30
35325;DHT22;35135;47.510;19.036;2022-09-09T04:42:04;24.30;57.40
35325;DHT22;35135;47.510;19.036;2022-09-09T04:44:31;24.00;57.70
35325;DHT22;35135;47.510;19.036;2022-09-09T04:46:59;23.80;58.60
35325;DHT22;35135;47.510;19.036;2022-09-09T04:49:31;23.60;59.40
35325;DHT22;35135;47.510;19.036;2022-09-09T04:51:58;23.60;59.60
35325;DHT22;35135;47.510;19.036;2022-09-09T04:54:27;23.70;59.00
35325;DHT22;35135;47.510;19.036;2022-09-09T04:56:55;23.70;59.00
35325;DHT22;35135;47.510;19.036;2022-09-09T04:59:22;23.50;59.50
35325;DHT22;35135;47.510;19.036;2022-09-09T05:01:50;23.40;60.00
35325;DHT22;35135;47.510;19.036;2022-09-09T05:04:19;23.20;60.60
35325;DHT22;35135;47.510;19.036;2022-09-09T05:06:46;23.10;61.30
35325;DHT22;35135;47.510;19.036;2022-09-09T05:09:12;23.00;61.50
35325;DHT22;35135;47.510;19.036;2022-09-09T05:11:40;23.00;61.70
35325;DHT22;35135;47.510;19.036;2022-09-09T05:14:14;22.90;62.00
35325;DHT22;35135;47.510;19.036;2022-09-09T05:16:46;22.90;62.20
35325;DHT22;35135;47.510;19.036;2022-09-09T05:19:14;22.90;62.50
35325;DHT22;35135;47.510;19.036;2022-09-09T05:21:41;23.00;62.20
35325;DHT22;35135;47.510;19.036;2022-09-09T05:24:08;23.10;62.10
35325;DHT22;35135;47.510;19.036;2022-09-09T05:26:34;23.10;61.30
35325;DHT22;35135;47.510;19.036;2022-09-09T05:29:00;23.00;61.60
35325;DHT22;35135;47.510;19.036;2022-09-09T05:31:29;23.10;61.30
35325;DHT22;35135;47.510;19.036;2022-09-09T05:33:58;23.20;61.20
35325;DHT22;35135;47.510;19.036;2022-09-09T05:36:25;23.30;61.10
35325;DHT22;35135;47.510;19.036;2022-09-09T05:38:53;23.30;60.40
35325;DHT22;35135;47.510;19.036;2022-09-09T05:41:22;23.40;60.60
35325;DHT22;35135;47.510;19.036;2022-09-09T05:43:51;23.50;60.10
35325;DHT22;35135;47.510;19.036;2022-09-09T05:46:21;23.60;59.90
35325;DHT22;35135;47.510;19.036;2022-09-09T05:48:49;23.60;59.50
35325;DHT22;35135;47.510;19.036;2022-09-09T05:51:20;23.60;59.50
35325;DHT22;35135;47.510;19.036;2022-09-09T05:53:50;23.60;60.50
35325;DHT22;35135;47.510;19.036;2022-09-09T05:56:34;23.50;60.00
35325;DHT22;35135;47.510;19.036;2022-09-09T05:59:00;23.50;60.10
35325;DHT22;35135;47.510;19.036;2022-09-09T06:01:32;23.40;60.70
35325;DHT22;35135;47.510;19.036;2022-09-09T06:03:58;23.50;60.70
35325;DHT22;35135;47.510;19.036;2022-09-09T06:06:33;23.60;60.70
35325;DHT22;35135;47.510;19.036;2022-09-09T06:09:04;23.70;60.30
35325;DHT22;35135;47.510;19.036;2022-09-09T06:11:34;23.90;59.90
35325;DHT22;35135;47.510;19.036;2022-09-09T06:14:01;24.10;59.80
35325;DHT22;35135;47.510;19.036;2022-09-09T06:16:28;24.20;59.30
35325;DHT22;35135;47.510;19.036;2022-09-09T06:18:55;24.40;58.80
35325;DHT22;35135;47.510;19.036;2022-09-09T06:21:25;24.40;58.60
35325;DHT22;35135;47.510;19.036;2022-09-09T06:23:54;24.50;58.30
35325;DHT22;35135;47.510;19.036;2022-09-09T06:26:24;24.50;58.30
35325;DHT22;35135;47.510;19.036;2022-09-09T06:28:53;24.50;58.30
35325;DHT22;35135;47.510;19.036;2022-09-09T06:31:24;24.50;58.00
35325;DHT22;35135;47.510;19.036;2022-09-09T06:33:54;24.50;58.20
35325;DHT22;35135;47.510;19.036;2022-09-09T06:36:36;24.60;58.20
35325;DHT22;35135;47.510;19.036;2022-09-09T06:39:04;24.70;58.00
35325;DHT22;35135;47.510;19.036;2022-09-09T06:41:31;24.80;57.90
35325;DHT22;35135;47.510;19.036;2022-09-09T06:43:59;24.90;57.60
35325;DHT22;35135;47.510;19.036;2022-09-09T06:46:29;25.00;57.40
35325;DHT22;35135;47.510;19.036;2022-09-09T06:49:00;25.00;56.40
35325;DHT22;35135;47.510;19.036;2022-09-09T06:51:36;24.90;57.10
35325;DHT22;35135;47.510;19.036;2022-09-09T06:54:10;24.90;57.20
35325;DHT22;35135;47.510;19.036;2022-09-09T06:56:39;24.90;57.00
35325;DHT22;35135;47.510;19.036;2022-09-09T06:59:09;24.80;57.20
35325;DHT22;35135;47.510;19.036;2022-09-09T07:01:38;24.90;57.40
35325;DHT22;35135;47.510;19.036;2022-09-09T07:04:06;24.90;57.20
35325;DHT22;35135;47.510;19.036;2022-09-09T07:06:37;24.90;57.10
35325;DHT22;35135;47.510;19.036;2022-09-09T07:09:09;25.00;56.90
35325;DHT22;35135;47.510;19.036;2022-09-09T07:11:44;25.00;57.00
35325;DHT22;35135;47.510;19.036;2022-09-09T07:14:11;25.00;57.10
35325;DHT22;35135;47.510;19.036;2022-09-09T07:16:40;25.00;57.00
35325;DHT22;35135;47.510;19.036;2022-09-09T07:19:06;25.00;56.80
35325;DHT22;35135;47.510;19.036;2022-09-09T07:21:33;25.00;56.90
35325;DHT22;35135;47.510;19.036;2022-09-09T07:24:00;25.10;57.10
35325;DHT22;35135;47.510;19.036;2022-09-09T07:26:28;25.20;56.80
35325;DHT22;35135;47.510;19.036;2022-09-09T07:28:54;25.20;56.60
35325;DHT22;35135;47.510;19.036;2022-09-09T07:31:28;25.20;56.30
35325;DHT22;35135;47.510;19.036;2022-09-09T07:33:57;25.20;56.00
35325;DHT22;35135;47.510;19.036;2022-09-09T07:36:28;25.20;56.20
35325;DHT22;35135;47.510;19.036;2022-09-09T07:38:57;25.20;56.10
35325;DHT22;35135;47.510;19.036;2022-09-09T07:41:27;25.30;56.30
35325;DHT22;35135;47.510;19.036;2022-09-09T07:43:54;25.30;56.10
35325;DHT22;35135;47.510;19.036;2022-09-09T07:46:23;25.30;56.00
35325;DHT22;35135;47.510;19.036;2022-09-09T07:48:54;25.30;55.90
35325;DHT22;35135;47.510;19.036;2022-09-09T07:51:24;25.20;55.70
35325;DHT22;35135;47.510;19.036;2022-09-09T07:54:00;25.10;55.70
35325;DHT22;35135;47.510;19.036;2022-09-09T07:56:28;25.10;55.80
35325;DHT22;35135;47.510;19.036;2022-09-09T07:58:57;25.10;55.80
35325;DHT22;35135;47.510;19.036;2022-09-09T08:01:27;25.10;55.90
35325;DHT22;35135;47.510;19.036;2022-09-09T08:03:56;25.10;56.00
35325;DHT22;35135;47.510;19.036;2022-09-09T08:06:25;25.10;55.40
35325;DHT22;35135;47.510;19.036;2022-09-09T08:08:52;25.20;55.30
35325;DHT22;35135;47.510;19.036;2022-09-09T08:11:21;25.10;55.30
35325;DHT22;35135;47.510;19.036;2022-09-09T08:13:50;25.20;55.30
35325;DHT22;35135;47.510;19.036;2022-09-09T08:16:20;25.20;55.10
35325;DHT22;35135;47.510;19.036;2022-09-09T08:18:49;25.30;55.20
35325;DHT22;35135;47.510;19.036;2022-09-09T08:21:21;25.30;54.90
35325;DHT22;35135;47.510;19.036;2022-09-09T08:23:48;25.30;54.60
35325;DHT22;35135;47.510;19.036;2022-09-09T08:26:17;25.30;54.90
35325;DHT22;35135;47.510;19.036;2022-09-09T08:28:47;25.30;54.90
35325;DHT22;35135;47.510;19.036;2022-09-09T08:31:20;25.30;55.20
35325;DHT22;35135;47.510;19.036;2022-09-09T08:33:46;25.30;54.60
35325;DHT22;35135;47.510;19.036;2022-09-09T08:36:21;25.40;55.10
35325;DHT22;35135;47.510;19.036;2022-09-09T08:38:49;25.40;55.00
35325;DHT22;35135;47.510;19.036;2022-09-09T08:41:54;25.50;54.20
35325;DHT22;35135;47.510;19.036;2022-09-09T08:47:50;25.40;54.60
35325;DHT22;35135;47.510;19.036;2022-09-09T08:55:51;25.60;54.80
35325;DHT22;35135;47.510;19.036;2022-09-09T08:58:26;25.50;54.20
35325;DHT22;35135;47.510;19.036;2022-09-09T09:11:50;25.50;53.60
35325;DHT22;35135;47.510;19.036;2022-09-09T09:14:23;25.50;53.60
35325;DHT22;35135;47.510;19.036;2022-09-09T09:19:34;25.50;53.80
35325;DHT22;35135;47.510;19.036;2022-09-09T09:25:19;25.60;53.80
35325;DHT22;35135;47.510;19.036;2022-09-09T09:27:59;25.60;53.50
35325;DHT22;35135;47.510;19.036;2022-09-09T09:31:19;25.60;53.60
35325;DHT22;35135;47.510;19.036;2022-09-09T09:33:52;25.60;53.60
35325;DHT22;35135;47.510;19.036;2022-09-09T09:36:44;25.60;53.80
35325;DHT22;35135;47.510;19.036;2022-09-09T09:39:27;25.60;53.60
35325;DHT22;35135;47.510;19.036;2022-09-09T09:41:53;25.60;53.30
35325;DHT22;35135;47.510;19.036;2022-09-09T09:44:38;25.60;53.20
35325;DHT22;35135;47.510;19.036;2022-09-09T09:47:24;25.60;53.30
35325;DHT22;35135;47.510;19.036;2022-09-09T09:49:58;25.60;53.40
35325;DHT22;35135;47.510;19.036;2022-09-09T09:52:28;25.60;53.70
35325;DHT22;35135;47.510;19.036;2022-09-09T09:54:55;25.60;53.70
35325;DHT22;35135;47.510;19.036;2022-09-09T09:57:40;25.60;53.30
35325;DHT22;35135;47.510;19.036;2022-09-09T10:02:41;25.70;53.40
35325;DHT22;35135;47.510;19.036;2022-09-09T10:05:19;25.70;53.10
35325;DHT22;35135;47.510;19.036;2022-09-09T10:07:46;25.70;52.80
35325;DHT22;35135;47.510;19.036;2022-09-09T10:10:19;25.60;52.40
35325;DHT22;35135;47.510;19.036;2022-09-09T10:13:11;25.70;52.40
35325;DHT22;35135;47.510;19.036;2022-09-09T10:19:11;25.70;52.60
35325;DHT22;35135;47.510;19.036;2022-09-09T10:35:44;25.70;51.20
35325;DHT22;35135;47.510;19.036;2022-09-09T10:38:33;25.70;51.20
35325;DHT22;35135;47.510;19.036;2022-09-09T10:41:09;25.70;51.30
35325;DHT22;35135;47.510;19.036;2022-09-09T10:52:42;25.70;50.60
35325;DHT22;35135;47.510;19.036;2022-09-09T10:55:17;25.70;50.80
35325;DHT22;35135;47.510;19.036;2022-09-09T10:57:58;25.70;50.50
35325;DHT22;35135;47.510;19.036;2022-09-09T11:00:36;25.70;50.60
35325;DHT22;35135;47.510;19.036;2022-09-09T11:03:05;25.70;50.30
35325;DHT22;35135;47.510;19.036;2022-09-09T11:05:44;25.70;50.40
35325;DHT22;35135;47.510;19.036;2022-09-09T11:08:28;25.80;50.50
35325;DHT22;35135;47.510;19.036;2022-09-09T11:11:11;25.70;50.70
35325;DHT22;35135;47.510;19.036;2022-09-09T11:13:44;25.80;50.50
35325;DHT22;35135;47.510;19.036;2022-09-09T11:21:50;25.80;51.10
35325;DHT22;35135;47.510;19.036;2022-09-09T11:32:45;25.80;49.60
35325;DHT22;35135;47.510;19.036;2022-09-09T11:40:32;25.80;50.00
35325;DHT22;35135;47.510;19.036;2022-09-09T11:45:41;25.80;49.60
35325;DHT22;35135;47.510;19.036;2022-09-09T11:48:33;25.80;49.80
35325;DHT22;35135;47.510;19.036;2022-09-09T11:51:05;25.80;49.80
35325;DHT22;35135;47.510;19.036;2022-09-09T11:56:25;25.90;50.10
35325;DHT22;35135;47.510;19.036;2022-09-09T11:59:20;25.90;50.10
35325;DHT22;35135;47.510;19.036;2022-09-09T12:01:46;25.90;49.70
35325;DHT22;35135;47.510;19.036;2022-09-09T12:17:27;25.90;49.70
35325;DHT22;35135;47.510;19.036;2022-09-09T12:20:18;25.90;49.70
35325;DHT22;35135;47.510;19.036;2022-09-09T12:31:10;25.90;49.00
35325;DHT22;35135;47.510;19.036;2022-09-09T12:33:45;25.90;49.30
35325;DHT22;35135;47.510;19.036;2022-09-09T12:36:31;25.90;48.70
35325;DHT22;35135;47.510;19.036;2022-09-09T12:39:43;26.00;48.70
35325;DHT22;35135;47.510;19.036;2022-09-09T12:42:02;26.00;48.80
35325;DHT22;35135;47.510;19.036;2022-09-09T12:44:29;26.00;48.60
35325;DHT22;35135;47.510;19.036;2022-09-09T12:46:58;26.00;48.70
35325;DHT22;35135;47.510;19.036;2022-09-09T12:49:35;26.00;48.60
35325;DHT22;35135;47.510;19.036;2022-09-09T12:52:13;26.00;48.60
35325;DHT22;35135;47.510;19.036;2022-09-09T12:54:45;26.00;48.50
35325;DHT22;35135;47.510;19.036;2022-09-09T12:57:14;26.00;47.90
35325;DHT22;35135;47.510;19.036;2022-09-09T12:59:42;26.00;47.60
35325;DHT22;35135;47.510;19.036;2022-09-09T13:02:23;26.00;47.60
35325;DHT22;35135;47.510;19.036;2022-09-09T13:04:53;26.00;48.10
35325;DHT22;35135;47.510;19.036;2022-09-09T13:07:22;26.00;47.90
35325;DHT22;35135;47.510;19.036;2022-09-09T13:09:49;26.00;48.00
35325;DHT22;35135;47.510;19.036;2022-09-09T13:12:22;26.00;48.00
35325;DHT22;35135;47.510;19.036;2022-09-09T13:14:52;26.00;48.20
35325;DHT22;35135;47.510;19.036;2022-09-09T13:17:26;26.10;47.70
35325;DHT22;35135;47.510;19.036;2022-09-09T13:19:54;26.10;47.80
35325;DHT22;35135;47.510;19.036;2022-09-09T13:22:36;26.10;47.20
35325;DHT22;35135;47.510;19.036;2022-09-09T13:25:19;26.10;47.90
35325;DHT22;35135;47.510;19.036;2022-09-09T13:28:01;26.10;47.50
35325;DHT22;35135;47.510;19.036;2022-09-09T13:30:35;26.10;47.70
35325;DHT22;35135;47.510;19.036;2022-09-09T13:36:26;26.10;47.20
35325;DHT22;35135;47.510;19.036;2022-09-09T13:38:56;26.10;48.00
35325;DHT22;35135;47.510;19.036;2022-09-09T13:41:42;26.20;48.10
35325;DHT22;35135;47.510;19.036;2022-09-09T13:44:27;26.20;48.50
35325;DHT22;35135;47.510;19.036;2022-09-09T13:47:20;26.20;48.10
35325;DHT22;35135;47.510;19.036;2022-09-09T13:49:47;26.20;48.00
35325;DHT22;35135;47.510;19.036;2022-09-09T13:52:18;26.20;47.60
35325;DHT22;35135;47.510;19.036;2022-09-09T13:54:49;26.20;47.20
35325;DHT22;35135;47.510;19.036;2022-09-09T13:57:24;26.20;46.70
35325;DHT22;35135;47.510;19.036;2022-09-09T13:59:52;26.20;47.40
35325;DHT22;35135;47.510;19.036;2022-09-09T14:02:20;26.30;47.90
35325;DHT22;35135;47.510;19.036;2022-09-09T14:04:46;26.30;48.30
35325;DHT22;35135;47.510;19.036;2022-09-09T14:07:17;26.30;47.20
35325;DHT22;35135;47.510;19.036;2022-09-09T14:09:44;26.30;46.60
35325;DHT22;35135;47.510;19.036;2022-09-09T14:12:14;26.30;45.20
35325;DHT22;35135;47.510;19.036;2022-09-09T14:14:41;26.30;46.00
35325;DHT22;35135;47.510;19.036;2022-09-09T14:17:08;26.30;45.30
35325;DHT22;35135;47.510;19.036;2022-09-09T14:19:35;26.30;45.50
35325;DHT22;35135;47.510;19.036;2022-09-09T14:22:03;26.30;45.70
35325;DHT22;35135;47.510;19.036;2022-09-09T14:24:30;26.30;46.10
35325;DHT22;35135;47.510;19.036;2022-09-09T14:26:58;26.30;45.70
35325;DHT22;35135;47.510;19.036;2022-09-09T14:29:25;26.30;46.60
35325;DHT22;35135;47.510;19.036;2022-09-09T14:31:52;26.30;47.00
35325;DHT22;35135;47.510;19.036;2022-09-09T14:34:18;26.30;47.40
35325;DHT22;35135;47.510;19.036;2022-09-09T14:36:44;26.30;46.20
35325;DHT22;35135;47.510;19.036;2022-09-09T14:39:10;26.30;46.50
35325;DHT22;35135;47.510;19.036;2022-09-09T14:41:37;26.30;47.20
35325;DHT22;35135;47.510;19.036;2022-09-09T14:44:04;26.40;47.50
35325;DHT22;35135;47.510;19.036;2022-09-09T14:46:30;26.30;47.50
35325;DHT22;35135;47.510;19.036;2022-09-09T14:48:57;26.40;47.70
35325;DHT22;35135;47.510;19.036;2022-09-09T14:51:25;26.40;46.70
35325;DHT22;35135;47.510;19.036;2022-09-09T14:53:58;26.30;45.90
35325;DHT22;35135;47.510;19.036;2022-09-09T14:56:27;26.30;45.50
35325;DHT22;35135;47.510;19.036;2022-09-09T14:58:56;26.30;46.10
35325;DHT22;35135;47.510;19.036;2022-09-09T15:01:24;26.30;45.60
35325;DHT22;35135;47.510;19.036;2022-09-09T15:03:55;26.30;45.80
35325;DHT22;35135;47.510;19.036;2022-09-09T15:06:23;26.30;45.30
35325;DHT22;35135;47.510;19.036;2022-09-09T15:08:54;26.30;46.30
35325;DHT22;35135;47.510;19.036;2022-09-09T15:11:33;26.30;45.90
35325;DHT22;35135;47.510;19.036;2022-09-09T15:14:04;26.30;45.20
35325;DHT22;35135;47.510;19.036;2022-09-09T15:16:33;26.30;47.10
35325;DHT22;35135;47.510;19.036;2022-09-09T15:19:01;26.30;44.70
35325;DHT22;35135;47.510;19.036;2022-09-09T15:21:34;26.30;46.60
35325;DHT22;35135;47.510;19.036;2022-09-09T15:24:00;26.30;46.80
35325;DHT22;35135;47.510;19.036;2022-09-09T15:26:27;26.40;46.60
35325;DHT22;35135;47.510;19.036;2022-09-09T15:28:53;26.30;46.30
35325;DHT22;35135;47.510;19.036;2022-09-09T15:31:24;26.40;46.50
35325;DHT22;35135;47.510;19.036;2022-09-09T15:33:59;26.40;46.30
35325;DHT22;35135;47.510;19.036;2022-09-09T15:36:36;26.30;46.30
35325;DHT22;35135;47.510;19.036;2022-09-09T15:39:06;26.40;46.40
35325;DHT22;35135;47.510;19.036;2022-09-09T15:41:34;26.30;44.50
35325;DHT22;35135;47.510;19.036;2022-09-09T15:44:06;26.30;44.40
35325;DHT22;35135;47.510;19.036;2022-09-09T15:46:34;26.30;43.10
35325;DHT22;35135;47.510;19.036;2022-09-09T15:49:12;26.30;43.20
35325;DHT22;35135;47.510;19.036;2022-09-09T15:51:45;26.30;43.60
35325;DHT22;35135;47.510;19.036;2022-09-09T15:54:14;26.30;44.30
35325;DHT22;35135;47.510;19.036;2022-09-09T15:56:42;26.30;44.40
35325;DHT22;35135;47.510;19.036;2022-09-09T15:59:09;26.30;43.70
35325;DHT22;35135;47.510;19.036;2022-09-09T16:01:38;26.30;44.00
35325;DHT22;35135;47.510;19.036;2022-09-09T16:04:05;26.30;44.00
35325;DHT22;35135;47.510;19.036;2022-09-09T16:06:32;26.30;44.30
35325;DHT22;35135;47.510;19.036;2022-09-09T16:09:00;26.30;44.20
35325;DHT22;35135;47.510;19.036;2022-09-09T16:11:31;26.20;44.60
35325;DHT22;35135;47.510;19.036;2022-09-09T16:13:58;26.30;44.60
35325;DHT22;35135;47.510;19.036;2022-09-09T16:16:29;26.30;44.30
35325;DHT22;35135;47.510;19.036;2022-09-09T16:19:02;26.20;43.90
35325;DHT22;35135;47.510;19.036;2022-09-09T16:21:31;26.20;43.50
35325;DHT22;35135;47.510;19.036;2022-09-09T16:23:59;26.20;43.00
35325;DHT22;35135;47.510;19.036;2022-09-09T16:26:25;26.20;43.80
35325;DHT22;35135;47.510;19.036;2022-09-09T16:28:53;26.10;44.30
35325;DHT22;35135;47.510;19.036;2022-09-09T16:31:24;26.10;44.10
35325;DHT22;35135;47.510;19.036;2022-09-09T16:33:50;26.20;43.80
35325;DHT22;35135;47.510;19.036;2022-09-09T16:36:20;26.10;43.60
35325;DHT22;35135;47.510;19.036;2022-09-09T16:38:52;26.10;43.60
35325;DHT22;35135;47.510;19.036;2022-09-09T16:41:19;26.10;43.90
35325;DHT22;35135;47.510;19.036;2022-09-09T16:43:45;26.10;43.90
35325;DHT22;35135;47.510;19.036;2022-09-09T16:46:18;26.10;43.40
35325;DHT22;35135;47.510;19.036;2022-09-09T16:48:47;26.10;43.40
35325;DHT22;35135;47.510;19.036;2022-09-09T16:51:23;26.10;43.60
35325;DHT22;35135;47.510;19.036;2022-09-09T16:53:50;26.00;43.40
35325;DHT22;35135;47.510;19.036;2022-09-09T16:56:19;26.00;43.70
35325;DHT22;35135;47.510;19.036;2022-09-09T16:58:57;25.90;43.90
35325;DHT22;35135;47.510;19.036;2022-09-09T17:01:28;25.90;44.30
35325;DHT22;35135;47.510;19.036;2022-09-09T17:03:55;25.90;44.50
35325;DHT22;35135;47.510;19.036;2022-09-09T17:06:22;25.90;44.50
35325;DHT22;35135;47.510;19.036;2022-09-09T17:08:54;25.90;44.70
35325;DHT22;35135;47.510;19.036;2022-09-09T17:11:21;26.00;44.70
35325;DHT22;35135;47.510;19.036;2022-09-09T17:13:49;25.90;44.80
35325;DHT22;35135;47.510;19.036;2022-09-09T17:16:17;26.00;44.90
35325;DHT22;35135;47.510;19.036;2022-09-09T17:18:54;25.90;44.90
35325;DHT22;35135;47.510;19.036;2022-09-09T17:21:23;25.90;44.60
35325;DHT22;35135;47.510;19.036;2022-09-09T17:23:51;25.90;44.50
35325;DHT22;35135;47.510;19.036;2022-09-09T17:26:21;25.90;44.80
35325;DHT22;35135;47.510;19.036;2022-09-09T17:28:49;25.80;44.70
35325;DHT22;35135;47.510;19.036;2022-09-09T17:31:18;25.80;44.70
35325;DHT22;35135;47.510;19.036;2022-09-09T17:33:50;25.70;45.10
35325;DHT22;35135;47.510;19.036;2022-09-09T17:36:22;25.70;44.80
35325;DHT22;35135;47.510;19.036;2022-09-09T17:38:49;25.70;45.20
35325;DHT22;35135;47.510;19.036;2022-09-09T17:41:24;25.70;45.30
35325;DHT22;35135;47.510;19.036;2022-09-09T17:43:51;25.60;45.20
35325;DHT22;35135;47.510;19.036;2022-09-09T17:46:29;25.60;45.40
35325;DHT22;35135;47.510;19.036;2022-09-09T17:49:00;25.50;45.70
35325;DHT22;35135;47.510;19.036;2022-09-09T17:51:29;25.50;45.90
35325;DHT22;35135;47.510;19.036;2022-09-09T17:54:10;25.40;46.40
35325;DHT22;35135;47.510;19.036;2022-09-09T17:56:37;25.50;46.60
35325;DHT22;35135;47.510;19.036;2022-09-09T17:59:08;25.50;46.70
35325;DHT22;35135;47.510;19.036;2022-09-09T18:01:37;25.40;46.90
35325;DHT22;35135;47.510;19.036;2022-09-09T18:04:06;25.40;46.90
35325;DHT22;35135;47.510;19.036;2022-09-09T18:06:39;25.40;46.90
35325;DHT22;35135;47.510;19.036;2022-09-09T18:09:10;25.50;47.00
35325;DHT22;35135;47.510;19.036;2022-09-09T18:11:41;25.50;47.20
35325;DHT22;35135;47.510;19.036;2022-09-09T18:14:10;25.40;47.20
35325;DHT22;35135;47.510;19.036;2022-09-09T18:16:38;25.50;47.40
35325;DHT22;35135;47.510;19.036;2022-09-09T18:19:07;25.40;47.60
35325;DHT22;35135;47.510;19.036;2022-09-09T18:21:35;25.50;47.60
35325;DHT22;35135;47.510;19.036;2022-09-09T18:24:04;25.50;47.70
35325;DHT22;35135;47.510;19.036;2022-09-09T18:26:33;25.50;47.80
35325;DHT22;35135;47.510;19.036;2022-09-09T18:29:04;25.40;48.00
35325;DHT22;35135;47.510;19.036;2022-09-09T18:31:31;25.40;48.30